sensor_id;sensor_type;location;lat;lon;timestamp;P1;durP1;ratioP1;P2;durP2;ratioP2
10489;SDS011;35569;48.402;10.670;2023-09-18T00:00:02;3.90;;;3.47;;
10489;SDS011;35569;48.402;10.670;2023-09-18T00:00:38;3.33;;;3.23;;
10489;SDS011;35569;48.402;10.670;2023-09-18T00:01:10;3.67;;;3.40;;
10489;SDS011;35569;48.402;10.670;2023-09-18T00:01:46;3.77;;;3.60;;
10489;SDS011;35569;48.402;10.670;2023-09-18T00:02:21;3.40;;;3.30;;
10489;SDS011;35569;48.402;10.670;2023-09-18T00:02:53;3.70;;;3.57;;
10489;SDS011;35569;48.402;10.670;2023-09-18T00:03:28;4.40;;;4.00;;
10489;SDS011;35569;48.402;10.670;2023-09-18T00:04:01;3.10;;;3.00;;
10489;SDS011;35569;48.402;10.670;2023-09-18T00:04:33;3.17;;;3.00;;
10489;SDS011;35569;48.402;10.670;2023-09-18T00:05:08;3.57;;;3.47;;
10489;SDS011;35569;48.402;10.670;2023-09-18T00:05:41;3.20;;;3.10;;
10489;SDS011;35569;48.402;10.670;2023-09-18T00:06:13;3.77;;;3.57;;
10489;SDS011;35569;48.402;10.670;2023-09-18T00:06:48;3.50;;;3.17;;
10489;SDS011;35569;48.402;10.670;2023-09-18T00:07:21;3.33;;;3.20;;
10489;SDS011;35569;48.402;10.670;2023-09-18T00:07:53;3.47;;;3.30;;
10489;SDS011;35569;48.402;10.670;2023-09-18T00:08:26;3.33;;;3.23;;
10489;SDS011;35569;48.402;10.670;2023-09-18T00:09:01;3.50;;;3.30;;
10489;SDS011;35569;48.402;10.670;2023-09-18T00:09:34;5.17;;;3.10;;
10489;SDS011;35569;48.402;10.670;2023-09-18T00:10:06;3.33;;;3.13;;
10489;SDS011;35569;48.402;10.670;2023-09-18T00:10:39;5.27;;;3.30;;
10489;SDS011;35569;48.402;10.670;2023-09-18T00:11:11;3.50;;;3.03;;
10489;SDS011;35569;48.402;10.670;2023-09-18T00:11:46;3.80;;;3.00;;
10489;SDS011;35569;48.402;10.670;2023-09-18T00:12:19;3.63;;;3.20;;
10489;SDS011;35569;48.402;10.670;2023-09-18T00:12:51;3.07;;;2.97;;
10489;SDS011;35569;48.402;10.670;2023-09-18T00:13:24;3.60;;;3.40;;
10489;SDS011;35569;48.402;10.670;2023-09-18T00:13:59;3.00;;;2.90;;
10489;SDS011;35569;48.402;10.670;2023-09-18T00:14:31;3.30;;;3.00;;
10489;SDS011;35569;48.402;10.670;2023-09-18T00:15:04;3.47;;;2.90;;
10489;SDS011;35569;48.402;10.670;2023-09-18T00:15:37;3.47;;;3.17;;
10489;SDS011;35569;48.402;10.670;2023-09-18T00:16:13;3.00;;;2.80;;
10489;SDS011;35569;48.402;10.670;2023-09-18T00:16:45;3.20;;;3.10;;
10489;SDS011;35569;48.402;10.670;2023-09-18T00:17:32;3.00;;;2.90;;
10489;SDS011;35569;48.402;10.670;2023-09-18T00:18:07;3.37;;;3.17;;
10489;SDS011;35569;48.402;10.670;2023-09-18T00:18:39;3.50;;;3.20;;
10489;SDS011;35569;48.402;10.670;2023-09-18T00:19:12;3.37;;;3.20;;
10489;SDS011;35569;48.402;10.670;2023-09-18T00:19:45;3.37;;;3.27;;
10489;SDS011;35569;48.402;10.670;2023-09-18T00:20:21;3.10;;;3.00;;
10489;SDS011;35569;48.402;10.670;2023-09-18T00:20:58;2.90;;;2.80;;
10489;SDS011;35569;48.402;10.670;2023-09-18T00:21:31;3.10;;;2.90;;
10489;SDS011;35569;48.402;10.670;2023-09-18T00:22:03;3.37;;;3.20;;
10489;SDS011;35569;48.402;10.670;2023-09-18T00:22:39;3.57;;;3.10;;
10489;SDS011;35569;48.402;10.670;2023-09-18T00:23:12;3.20;;;3.10;;
10489;SDS011;35569;48.402;10.670;2023-09-18T00:23:44;7.23;;;2.63;;
10489;SDS011;35569;48.402;10.670;2023-09-18T00:24:18;3.10;;;2.90;;
10489;SDS011;35569;48.402;10.670;2023-09-18T00:24:53;2.87;;;2.77;;
10489;SDS011;35569;48.402;10.670;2023-09-18T00:25:25;3.13;;;2.93;;
10489;SDS011;35569;48.402;10.670;2023-09-18T00:25:57;3.20;;;3.10;;
10489;SDS011;35569;48.402;10.670;2023-09-18T00:26:32;3.30;;;3.20;;
10489;SDS011;35569;48.402;10.670;2023-09-18T00:27:05;3.20;;;3.10;;
10489;SDS011;35569;48.402;10.670;2023-09-18T00:27:37;3.37;;;2.77;;
10489;SDS011;35569;48.402;10.670;2023-09-18T00:28:10;3.80;;;3.00;;
10489;SDS011;35569;48.402;10.670;2023-09-18T00:28:46;3.80;;;3.50;;
10489;SDS011;35569;48.402;10.670;2023-09-18T00:29:18;3.23;;;3.00;;
10489;SDS011;35569;48.402;10.670;2023-09-18T00:29:51;3.57;;;3.27;;
10489;SDS011;35569;48.402;10.670;2023-09-18T00:30:26;3.03;;;2.93;;
10489;SDS011;35569;48.402;10.670;2023-09-18T00:30:59;3.60;;;3.30;;
10489;SDS011;35569;48.402;10.670;2023-09-18T00:31:31;4.60;;;3.20;;
10489;SDS011;35569;48.402;10.670;2023-09-18T00:32:04;3.37;;;3.27;;
10489;SDS011;35569;48.402;10.670;2023-09-18T00:32:42;3.10;;;3.00;;
10489;SDS011;35569;48.402;10.670;2023-09-18T00:33:15;3.10;;;2.87;;
10489;SDS011;35569;48.402;10.670;2023-09-18T00:33:48;3.13;;;3.03;;
10489;SDS011;35569;48.402;10.670;2023-09-18T00:34:20;3.43;;;3.23;;
10489;SDS011;35569;48.402;10.670;2023-09-18T00:34:55;3.23;;;3.13;;
10489;SDS011;35569;48.402;10.670;2023-09-18T00:35:28;3.03;;;2.77;;
10489;SDS011;35569;48.402;10.670;2023-09-18T00:36:00;3.23;;;3.03;;
10489;SDS011;35569;48.402;10.670;2023-09-18T00:36:33;2.87;;;2.77;;
10489;SDS011;35569;48.402;10.670;2023-09-18T00:37:06;7.50;;;2.90;;
10489;SDS011;35569;48.402;10.670;2023-09-18T00:37:44;3.80;;;3.47;;
10489;SDS011;35569;48.402;10.670;2023-09-18T00:38:17;2.90;;;2.70;;
10489;SDS011;35569;48.402;10.670;2023-09-18T00:38:50;3.33;;;3.23;;
10489;SDS011;35569;48.402;10.670;2023-09-18T00:39:25;3.80;;;3.60;;
10489;SDS011;35569;48.402;10.670;2023-09-18T00:39:58;3.50;;;3.20;;
10489;SDS011;35569;48.402;10.670;2023-09-18T00:40:30;3.30;;;3.20;;
10489;SDS011;35569;48.402;10.670;2023-09-18T00:41:03;3.87;;;3.40;;
10489;SDS011;35569;48.402;10.670;2023-09-18T00:41:38;4.37;;;4.00;;
10489;SDS011;35569;48.402;10.670;2023-09-18T00:42:10;4.20;;;3.90;;
10489;SDS011;35569;48.402;10.670;2023-09-18T00:42:45;4.17;;;3.83;;
10489;SDS011;35569;48.402;10.670;2023-09-18T00:43:18;3.73;;;3.53;;
10489;SDS011;35569;48.402;10.670;2023-09-18T00:43:53;4.13;;;3.93;;
10489;SDS011;35569;48.402;10.670;2023-09-18T00:44:25;6.70;;;3.73;;
10489;SDS011;35569;48.402;10.670;2023-09-18T00:44:58;4.13;;;3.93;;
10489;SDS011;35569;48.402;10.670;2023-09-18T00:45:30;3.90;;;3.80;;
10489;SDS011;35569;48.402;10.670;2023-09-18T00:46:05;5.93;;;4.20;;
10489;SDS011;35569;48.402;10.670;2023-09-18T00:46:39;5.10;;;4.57;;
10489;SDS011;35569;48.402;10.670;2023-09-18T00:47:11;4.00;;;3.60;;
10489;SDS011;35569;48.402;10.670;2023-09-18T00:47:47;4.07;;;3.83;;
10489;SDS011;35569;48.402;10.670;2023-09-18T00:48:22;4.80;;;4.40;;
10489;SDS011;35569;48.402;10.670;2023-09-18T00:48:54;4.23;;;4.00;;
10489;SDS011;35569;48.402;10.670;2023-09-18T00:49:27;4.60;;;4.20;;
10489;SDS011;35569;48.402;10.670;2023-09-18T00:50:02;4.40;;;4.20;;
10489;SDS011;35569;48.402;10.670;2023-09-18T00:50:36;5.17;;;4.57;;
10489;SDS011;35569;48.402;10.670;2023-09-18T00:51:10;3.80;;;3.60;;
10489;SDS011;35569;48.402;10.670;2023-09-18T00:51:42;4.23;;;4.03;;
10489;SDS011;35569;48.402;10.670;2023-09-18T00:52:18;4.43;;;4.13;;
10489;SDS011;35569;48.402;10.670;2023-09-18T00:52:52;4.17;;;3.73;;
10489;SDS011;35569;48.402;10.670;2023-09-18T00:53:25;4.07;;;3.77;;
10489;SDS011;35569;48.402;10.670;2023-09-18T00:54:00;4.13;;;3.93;;
10489;SDS011;35569;48.402;10.670;2023-09-18T00:54:33;4.57;;;4.17;;
10489;SDS011;35569;48.402;10.670;2023-09-18T00:55:07;4.10;;;3.70;;
10489;SDS011;35569;48.402;10.670;2023-09-18T00:55:41;5.30;;;3.90;;
10489;SDS011;35569;48.402;10.670;2023-09-18T00:56:17;4.27;;;4.07;;
10489;SDS011;35569;48.402;10.670;2023-09-18T00:56:54;6.40;;;4.30;;
10489;SDS011;35569;48.402;10.670;2023-09-18T00:57:27;4.00;;;3.80;;
10489;SDS011;35569;48.402;10.670;2023-09-18T00:58:00;4.40;;;4.00;;
10489;SDS011;35569;48.402;10.670;2023-09-18T00:58:36;4.20;;;3.97;;
10489;SDS011;35569;48.402;10.670;2023-09-18T00:59:09;3.80;;;3.53;;
10489;SDS011;35569;48.402;10.670;2023-09-18T00:59:42;4.30;;;4.00;;
10489;SDS011;35569;48.402;10.670;2023-09-18T01:00:14;4.20;;;3.90;;
10489;SDS011;35569;48.402;10.670;2023-09-18T01:00:50;5.37;;;4.20;;
10489;SDS011;35569;48.402;10.670;2023-09-18T01:01:23;3.60;;;3.30;;
10489;SDS011;35569;48.402;10.670;2023-09-18T01:01:55;5.10;;;4.10;;
10489;SDS011;35569;48.402;10.670;2023-09-18T01:02:28;4.13;;;3.83;;
10489;SDS011;35569;48.402;10.670;2023-09-18T01:03:06;6.20;;;3.73;;
10489;SDS011;35569;48.402;10.670;2023-09-18T01:03:38;4.13;;;3.83;;
10489;SDS011;35569;48.402;10.670;2023-09-18T01:04:11;4.17;;;3.87;;
10489;SDS011;35569;48.402;10.670;2023-09-18T01:04:44;4.30;;;4.00;;
10489;SDS011;35569;48.402;10.670;2023-09-18T01:05:20;4.27;;;4.00;;
10489;SDS011;35569;48.402;10.670;2023-09-18T01:05:53;3.93;;;3.70;;
10489;SDS011;35569;48.402;10.670;2023-09-18T01:06:25;4.83;;;3.60;;
10489;SDS011;35569;48.402;10.670;2023-09-18T01:07:02;3.40;;;3.10;;
10489;SDS011;35569;48.402;10.670;2023-09-18T01:07:35;4.10;;;3.80;;
10489;SDS011;35569;48.402;10.670;2023-09-18T01:08:08;4.00;;;3.60;;
10489;SDS011;35569;48.402;10.670;2023-09-18T01:08:45;4.60;;;4.30;;
10489;SDS011;35569;48.402;10.670;2023-09-18T01:09:18;6.70;;;4.17;;
10489;SDS011;35569;48.402;10.670;2023-09-18T01:09:51;3.93;;;3.60;;
10489;SDS011;35569;48.402;10.670;2023-09-18T01:10:24;4.40;;;3.83;;
10489;SDS011;35569;48.402;10.670;2023-09-18T01:11:04;5.80;;;3.70;;
10489;SDS011;35569;48.402;10.670;2023-09-18T01:11:42;3.87;;;3.57;;
10489;SDS011;35569;48.402;10.670;2023-09-18T01:12:22;4.07;;;3.33;;
10489;SDS011;35569;48.402;10.670;2023-09-18T01:13:00;4.13;;;3.83;;
10489;SDS011;35569;48.402;10.670;2023-09-18T01:13:37;4.13;;;3.83;;
10489;SDS011;35569;48.402;10.670;2023-09-18T01:14:19;4.30;;;3.90;;
10489;SDS011;35569;48.402;10.670;2023-09-18T01:14:57;3.70;;;3.53;;
10489;SDS011;35569;48.402;10.670;2023-09-18T01:15:32;5.27;;;3.73;;
10489;SDS011;35569;48.402;10.670;2023-09-18T01:16:06;4.03;;;3.63;;
10489;SDS011;35569;48.402;10.670;2023-09-18T01:16:46;3.87;;;3.67;;
10489;SDS011;35569;48.402;10.670;2023-09-18T01:17:22;3.60;;;3.40;;
10489;SDS011;35569;48.402;10.670;2023-09-18T01:17:55;3.50;;;3.30;;
10489;SDS011;35569;48.402;10.670;2023-09-18T01:18:30;3.53;;;3.23;;
10489;SDS011;35569;48.402;10.670;2023-09-18T01:19:05;3.27;;;3.17;;
10489;SDS011;35569;48.402;10.670;2023-09-18T01:19:39;4.67;;;3.77;;
10489;SDS011;35569;48.402;10.670;2023-09-18T01:20:12;3.80;;;3.50;;
10489;SDS011;35569;48.402;10.670;2023-09-18T01:20:44;7.23;;;3.33;;
10489;SDS011;35569;48.402;10.670;2023-09-18T01:21:19;5.23;;;3.57;;
10489;SDS011;35569;48.402;10.670;2023-09-18T01:21:52;3.53;;;3.43;;
10489;SDS011;35569;48.402;10.670;2023-09-18T01:23:03;2.97;;;2.87;;
10489;SDS011;35569;48.402;10.670;2023-09-18T01:23:38;3.60;;;3.50;;
10489;SDS011;35569;48.402;10.670;2023-09-18T01:24:10;3.33;;;3.07;;
10489;SDS011;35569;48.402;10.670;2023-09-18T01:24:43;4.67;;;3.40;;
10489;SDS011;35569;48.402;10.670;2023-09-18T01:25:16;4.10;;;3.70;;
10489;SDS011;35569;48.402;10.670;2023-09-18T01:25:52;3.57;;;3.37;;
10489;SDS011;35569;48.402;10.670;2023-09-18T01:26:24;4.87;;;3.30;;
10489;SDS011;35569;48.402;10.670;2023-09-18T01:26:57;4.53;;;3.60;;
10489;SDS011;35569;48.402;10.670;2023-09-18T01:27:29;3.50;;;3.20;;
10489;SDS011;35569;48.402;10.670;2023-09-18T01:28:04;3.20;;;3.00;;
10489;SDS011;35569;48.402;10.670;2023-09-18T01:28:37;3.40;;;3.17;;
10489;SDS011;35569;48.402;10.670;2023-09-18T01:29:09;3.97;;;3.67;;
10489;SDS011;35569;48.402;10.670;2023-09-18T01:29:41;3.50;;;3.10;;
10489;SDS011;35569;48.402;10.670;2023-09-18T01:30:14;2.93;;;2.80;;
10489;SDS011;35569;48.402;10.670;2023-09-18T01:30:50;3.90;;;3.70;;
10489;SDS011;35569;48.402;10.670;2023-09-18T01:31:22;2.90;;;2.80;;
10489;SDS011;35569;48.402;10.670;2023-09-18T01:31:55;3.60;;;3.40;;
10489;SDS011;35569;48.402;10.670;2023-09-18T01:32:28;3.37;;;3.20;;
10489;SDS011;35569;48.402;10.670;2023-09-18T01:33:04;3.90;;;3.30;;
10489;SDS011;35569;48.402;10.670;2023-09-18T01:33:37;3.70;;;3.50;;
10489;SDS011;35569;48.402;10.670;2023-09-18T01:34:10;3.70;;;3.50;;
10489;SDS011;35569;48.402;10.670;2023-09-18T01:34:45;5.00;;;3.10;;
10489;SDS011;35569;48.402;10.670;2023-09-18T01:35:21;3.67;;;3.00;;
10489;SDS011;35569;48.402;10.670;2023-09-18T01:36:00;3.90;;;3.60;;
10489;SDS011;35569;48.402;10.670;2023-09-18T01:36:34;4.67;;;3.50;;
10489;SDS011;35569;48.402;10.670;2023-09-18T01:37:09;3.77;;;3.57;;
10489;SDS011;35569;48.402;10.670;2023-09-18T01:37:45;4.00;;;3.70;;
10489;SDS011;35569;48.402;10.670;2023-09-18T01:38:17;3.73;;;3.50;;
10489;SDS011;35569;48.402;10.670;2023-09-18T01:38:50;3.10;;;2.90;;
10489;SDS011;35569;48.402;10.670;2023-09-18T01:39:25;4.00;;;3.07;;
10489;SDS011;35569;48.402;10.670;2023-09-18T01:40:03;5.07;;;3.20;;
10489;SDS011;35569;48.402;10.670;2023-09-18T01:40:38;4.90;;;3.33;;
10489;SDS011;35569;48.402;10.670;2023-09-18T01:41:11;3.63;;;3.53;;
10489;SDS011;35569;48.402;10.670;2023-09-18T01:41:46;3.97;;;3.77;;
10489;SDS011;35569;48.402;10.670;2023-09-18T01:42:19;3.30;;;3.10;;
10489;SDS011;35569;48.402;10.670;2023-09-18T01:42:51;2.90;;;2.80;;
10489;SDS011;35569;48.402;10.670;2023-09-18T01:43:24;3.30;;;3.03;;
10489;SDS011;35569;48.402;10.670;2023-09-18T01:43:59;3.53;;;3.20;;
10489;SDS011;35569;48.402;10.670;2023-09-18T01:44:33;3.27;;;3.10;;
10489;SDS011;35569;48.402;10.670;2023-09-18T01:45:06;5.30;;;3.23;;
10489;SDS011;35569;48.402;10.670;2023-09-18T01:45:39;3.50;;;3.20;;
10489;SDS011;35569;48.402;10.670;2023-09-18T01:46:15;3.80;;;3.43;;
10489;SDS011;35569;48.402;10.670;2023-09-18T01:46:47;3.47;;;3.30;;
10489;SDS011;35569;48.402;10.670;2023-09-18T01:47:23;3.63;;;3.53;;
10489;SDS011;35569;48.402;10.670;2023-09-18T01:47:55;3.73;;;3.40;;
10489;SDS011;35569;48.402;10.670;2023-09-18T01:48:31;3.53;;;3.23;;
10489;SDS011;35569;48.402;10.670;2023-09-18T01:49:04;3.60;;;3.40;;
10489;SDS011;35569;48.402;10.670;2023-09-18T01:49:36;3.90;;;3.67;;
10489;SDS011;35569;48.402;10.670;2023-09-18T01:50:12;11.30;;;3.10;;
10489;SDS011;35569;48.402;10.670;2023-09-18T01:50:45;3.17;;;3.07;;
10489;SDS011;35569;48.402;10.670;2023-09-18T01:51:17;3.23;;;3.03;;
10489;SDS011;35569;48.402;10.670;2023-09-18T01:51:52;3.37;;;3.17;;
10489;SDS011;35569;48.402;10.670;2023-09-18T01:52:24;3.73;;;3.40;;
10489;SDS011;35569;48.402;10.670;2023-09-18T01:53:00;3.90;;;3.70;;
10489;SDS011;35569;48.402;10.670;2023-09-18T01:53:35;3.53;;;3.23;;
10489;SDS011;35569;48.402;10.670;2023-09-18T01:54:08;3.40;;;3.20;;
10489;SDS011;35569;48.402;10.670;2023-09-18T01:54:41;3.67;;;3.33;;
10489;SDS011;35569;48.402;10.670;2023-09-18T01:55:13;3.27;;;3.17;;
10489;SDS011;35569;48.402;10.670;2023-09-18T01:55:48;3.93;;;3.60;;
10489;SDS011;35569;48.402;10.670;2023-09-18T01:56:21;3.83;;;3.40;;
10489;SDS011;35569;48.402;10.670;2023-09-18T01:56:53;3.50;;;3.30;;
10489;SDS011;35569;48.402;10.670;2023-09-18T01:57:26;3.40;;;3.10;;
10489;SDS011;35569;48.402;10.670;2023-09-18T01:58:01;3.03;;;2.80;;
10489;SDS011;35569;48.402;10.670;2023-09-18T01:58:35;3.53;;;3.33;;
10489;SDS011;35569;48.402;10.670;2023-09-18T01:59:08;3.17;;;3.07;;
10489;SDS011;35569;48.402;10.670;2023-09-18T01:59:41;3.20;;;3.10;;
10489;SDS011;35569;48.402;10.670;2023-09-18T02:00:18;3.43;;;3.23;;
10489;SDS011;35569;48.402;10.670;2023-09-18T02:00:50;3.07;;;2.87;;
10489;SDS011;35569;48.402;10.670;2023-09-18T02:01:23;9.27;;;3.50;;
10489;SDS011;35569;48.402;10.670;2023-09-18T02:01:59;3.10;;;3.00;;
10489;SDS011;35569;48.402;10.670;2023-09-18T02:02:32;2.80;;;2.70;;
10489;SDS011;35569;48.402;10.670;2023-09-18T02:03:23;3.40;;;3.17;;
10489;SDS011;35569;48.402;10.670;2023-09-18T02:04:15;4.33;;;3.00;;
10489;SDS011;35569;48.402;10.670;2023-09-18T02:05:10;5.20;;;3.67;;
10489;SDS011;35569;48.402;10.670;2023-09-18T02:05:43;10.00;;;3.43;;
10489;SDS011;35569;48.402;10.670;2023-09-18T02:06:18;3.67;;;3.30;;
10489;SDS011;35569;48.402;10.670;2023-09-18T02:06:51;4.37;;;3.20;;
10489;SDS011;35569;48.402;10.670;2023-09-18T02:07:23;5.07;;;3.30;;
10489;SDS011;35569;48.402;10.670;2023-09-18T02:07:56;3.37;;;3.20;;
10489;SDS011;35569;48.402;10.670;2023-09-18T02:08:34;3.40;;;3.10;;
10489;SDS011;35569;48.402;10.670;2023-09-18T02:09:06;3.50;;;3.40;;
10489;SDS011;35569;48.402;10.670;2023-09-18T02:09:39;3.57;;;3.47;;
10489;SDS011;35569;48.402;10.670;2023-09-18T02:10:15;3.40;;;3.20;;
10489;SDS011;35569;48.402;10.670;2023-09-18T02:10:48;3.67;;;2.90;;
10489;SDS011;35569;48.402;10.670;2023-09-18T02:11:20;3.53;;;3.20;;
10489;SDS011;35569;48.402;10.670;2023-09-18T02:11:53;3.23;;;3.10;;
10489;SDS011;35569;48.402;10.670;2023-09-18T02:12:28;4.93;;;3.80;;
10489;SDS011;35569;48.402;10.670;2023-09-18T02:13:01;3.53;;;3.27;;
10489;SDS011;35569;48.402;10.670;2023-09-18T02:13:33;3.70;;;3.10;;
10489;SDS011;35569;48.402;10.670;2023-09-18T02:14:06;3.50;;;3.40;;
10489;SDS011;35569;48.402;10.670;2023-09-18T02:14:41;3.53;;;3.33;;
10489;SDS011;35569;48.402;10.670;2023-09-18T02:15:14;3.37;;;3.03;;
10489;SDS011;35569;48.402;10.670;2023-09-18T02:15:48;3.57;;;3.30;;
10489;SDS011;35569;48.402;10.670;2023-09-18T02:16:23;2.90;;;2.73;;
10489;SDS011;35569;48.402;10.670;2023-09-18T02:16:56;3.53;;;3.30;;
10489;SDS011;35569;48.402;10.670;2023-09-18T02:17:28;3.70;;;3.40;;
10489;SDS011;35569;48.402;10.670;2023-09-18T02:18:01;3.20;;;3.00;;
10489;SDS011;35569;48.402;10.670;2023-09-18T02:18:39;4.00;;;3.60;;
10489;SDS011;35569;48.402;10.670;2023-09-18T02:19:12;3.80;;;3.50;;
10489;SDS011;35569;48.402;10.670;2023-09-18T02:19:45;7.17;;;3.70;;
10489;SDS011;35569;48.402;10.670;2023-09-18T02:20:18;4.17;;;3.77;;
10489;SDS011;35569;48.402;10.670;2023-09-18T02:20:53;6.57;;;3.27;;
10489;SDS011;35569;48.402;10.670;2023-09-18T02:21:25;4.40;;;4.10;;
10489;SDS011;35569;48.402;10.670;2023-09-18T02:21:58;4.43;;;4.00;;
10489;SDS011;35569;48.402;10.670;2023-09-18T02:22:34;4.67;;;3.63;;
10489;SDS011;35569;48.402;10.670;2023-09-18T02:23:06;5.27;;;3.23;;
10489;SDS011;35569;48.402;10.670;2023-09-18T02:23:41;3.50;;;3.20;;
10489;SDS011;35569;48.402;10.670;2023-09-18T02:24:14;4.13;;;3.73;;
10489;SDS011;35569;48.402;10.670;2023-09-18T02:24:49;3.80;;;3.60;;
10489;SDS011;35569;48.402;10.670;2023-09-18T02:25:23;3.80;;;3.60;;
10489;SDS011;35569;48.402;10.670;2023-09-18T02:25:55;3.47;;;3.20;;
10489;SDS011;35569;48.402;10.670;2023-09-18T02:26:28;4.40;;;4.00;;
10489;SDS011;35569;48.402;10.670;2023-09-18T02:27:04;3.80;;;3.50;;
10489;SDS011;35569;48.402;10.670;2023-09-18T02:27:37;4.00;;;3.67;;
10489;SDS011;35569;48.402;10.670;2023-09-18T02:28:10;3.97;;;3.77;;
10489;SDS011;35569;48.402;10.670;2023-09-18T02:28:45;4.83;;;4.07;;
10489;SDS011;35569;48.402;10.670;2023-09-18T02:29:17;4.27;;;3.90;;
10489;SDS011;35569;48.402;10.670;2023-09-18T02:29:50;4.00;;;3.80;;
10489;SDS011;35569;48.402;10.670;2023-09-18T02:30:25;3.73;;;3.30;;
10489;SDS011;35569;48.402;10.670;2023-09-18T02:30:57;4.47;;;4.17;;
10489;SDS011;35569;48.402;10.670;2023-09-18T02:31:30;4.00;;;3.80;;
10489;SDS011;35569;48.402;10.670;2023-09-18T02:32:03;4.67;;;4.37;;
10489;SDS011;35569;48.402;10.670;2023-09-18T02:32:39;5.30;;;3.87;;
10489;SDS011;35569;48.402;10.670;2023-09-18T02:33:11;9.73;;;3.90;;
10489;SDS011;35569;48.402;10.670;2023-09-18T02:33:44;4.13;;;3.93;;
10489;SDS011;35569;48.402;10.670;2023-09-18T02:34:17;4.43;;;4.17;;
10489;SDS011;35569;48.402;10.670;2023-09-18T02:34:51;4.97;;;4.47;;
10489;SDS011;35569;48.402;10.670;2023-09-18T02:35:26;5.50;;;5.10;;
10489;SDS011;35569;48.402;10.670;2023-09-18T02:35:58;5.00;;;4.70;;
10489;SDS011;35569;48.402;10.670;2023-09-18T02:36:32;5.30;;;4.43;;
10489;SDS011;35569;48.402;10.670;2023-09-18T02:37:07;5.27;;;4.60;;
10489;SDS011;35569;48.402;10.670;2023-09-18T02:37:39;4.80;;;4.37;;
10489;SDS011;35569;48.402;10.670;2023-09-18T02:38:11;5.80;;;4.90;;
10489;SDS011;35569;48.402;10.670;2023-09-18T02:38:46;4.30;;;4.10;;
10489;SDS011;35569;48.402;10.670;2023-09-18T02:39:22;5.10;;;4.70;;
10489;SDS011;35569;48.402;10.670;2023-09-18T02:39:54;9.53;;;5.10;;
10489;SDS011;35569;48.402;10.670;2023-09-18T02:40:27;6.23;;;4.23;;
10489;SDS011;35569;48.402;10.670;2023-09-18T02:41:02;4.37;;;4.17;;
10489;SDS011;35569;48.402;10.670;2023-09-18T02:41:35;4.93;;;4.53;;
10489;SDS011;35569;48.402;10.670;2023-09-18T02:42:08;5.03;;;4.73;;
10489;SDS011;35569;48.402;10.670;2023-09-18T02:42:41;4.20;;;4.00;;
10489;SDS011;35569;48.402;10.670;2023-09-18T02:43:16;8.00;;;5.03;;
10489;SDS011;35569;48.402;10.670;2023-09-18T02:43:48;6.60;;;4.90;;
10489;SDS011;35569;48.402;10.670;2023-09-18T02:44:21;4.87;;;4.40;;
10489;SDS011;35569;48.402;10.670;2023-09-18T02:44:56;4.80;;;4.40;;
10489;SDS011;35569;48.402;10.670;2023-09-18T02:45:28;5.27;;;4.87;;
10489;SDS011;35569;48.402;10.670;2023-09-18T02:46:00;5.07;;;4.60;;
10489;SDS011;35569;48.402;10.670;2023-09-18T02:46:33;5.83;;;4.90;;
10489;SDS011;35569;48.402;10.670;2023-09-18T02:47:08;5.03;;;4.63;;
10489;SDS011;35569;48.402;10.670;2023-09-18T02:47:41;5.10;;;4.80;;
10489;SDS011;35569;48.402;10.670;2023-09-18T02:48:14;6.13;;;5.20;;
10489;SDS011;35569;48.402;10.670;2023-09-18T02:48:46;5.57;;;4.50;;
10489;SDS011;35569;48.402;10.670;2023-09-18T02:49:23;4.73;;;4.43;;
10489;SDS011;35569;48.402;10.670;2023-09-18T02:49:55;4.83;;;4.53;;
10489;SDS011;35569;48.402;10.670;2023-09-18T02:50:27;5.77;;;4.70;;
10489;SDS011;35569;48.402;10.670;2023-09-18T02:51:00;4.50;;;4.30;;
10489;SDS011;35569;48.402;10.670;2023-09-18T02:51:36;4.40;;;4.10;;
10489;SDS011;35569;48.402;10.670;2023-09-18T02:52:08;4.37;;;4.07;;
10489;SDS011;35569;48.402;10.670;2023-09-18T02:52:41;4.33;;;4.13;;
10489;SDS011;35569;48.402;10.670;2023-09-18T02:53:16;4.27;;;4.07;;
10489;SDS011;35569;48.402;10.670;2023-09-18T02:53:52;4.87;;;4.63;;
10489;SDS011;35569;48.402;10.670;2023-09-18T02:54:25;5.80;;;4.20;;
10489;SDS011;35569;48.402;10.670;2023-09-18T02:55:00;5.80;;;4.33;;
10489;SDS011;35569;48.402;10.670;2023-09-18T02:55:33;4.10;;;3.90;;
10489;SDS011;35569;48.402;10.670;2023-09-18T02:56:05;4.37;;;4.07;;
10489;SDS011;35569;48.402;10.670;2023-09-18T02:56:38;3.93;;;3.67;;
10489;SDS011;35569;48.402;10.670;2023-09-18T02:57:13;4.07;;;3.80;;
10489;SDS011;35569;48.402;10.670;2023-09-18T02:57:45;4.07;;;3.87;;
10489;SDS011;35569;48.402;10.670;2023-09-18T02:58:19;3.97;;;3.70;;
10489;SDS011;35569;48.402;10.670;2023-09-18T02:58:51;5.33;;;4.70;;
10489;SDS011;35569;48.402;10.670;2023-09-18T02:59:26;4.40;;;4.13;;
10489;SDS011;35569;48.402;10.670;2023-09-18T02:59:59;5.00;;;4.57;;
10489;SDS011;35569;48.402;10.670;2023-09-18T03:00:31;3.60;;;3.40;;
10489;SDS011;35569;48.402;10.670;2023-09-18T03:01:14;4.23;;;3.40;;
10489;SDS011;35569;48.402;10.670;2023-09-18T03:01:49;4.70;;;3.90;;
10489;SDS011;35569;48.402;10.670;2023-09-18T03:02:21;4.23;;;4.00;;
10489;SDS011;35569;48.402;10.670;2023-09-18T03:02:54;6.00;;;4.10;;
10489;SDS011;35569;48.402;10.670;2023-09-18T03:03:27;4.93;;;4.57;;
10489;SDS011;35569;48.402;10.670;2023-09-18T03:04:04;3.80;;;3.70;;
10489;SDS011;35569;48.402;10.670;2023-09-18T03:04:37;4.33;;;3.50;;
10489;SDS011;35569;48.402;10.670;2023-09-18T03:05:09;4.60;;;4.20;;
10489;SDS011;35569;48.402;10.670;2023-09-18T03:05:42;4.53;;;4.13;;
10489;SDS011;35569;48.402;10.670;2023-09-18T03:06:16;4.73;;;4.43;;
10489;SDS011;35569;48.402;10.670;2023-09-18T03:06:53;4.70;;;4.50;;
10489;SDS011;35569;48.402;10.670;2023-09-18T03:07:28;5.60;;;4.63;;
10489;SDS011;35569;48.402;10.670;2023-09-18T03:08:02;4.73;;;4.43;;
10489;SDS011;35569;48.402;10.670;2023-09-18T03:08:36;5.30;;;4.93;;
10489;SDS011;35569;48.402;10.670;2023-09-18T03:09:14;5.43;;;5.00;;
10489;SDS011;35569;48.402;10.670;2023-09-18T03:09:47;10.00;;;5.40;;
10489;SDS011;35569;48.402;10.670;2023-09-18T03:10:20;10.60;;;5.40;;
10489;SDS011;35569;48.402;10.670;2023-09-18T03:10:53;5.90;;;5.30;;
10489;SDS011;35569;48.402;10.670;2023-09-18T03:11:28;5.17;;;4.77;;
10489;SDS011;35569;48.402;10.670;2023-09-18T03:12:01;5.87;;;5.37;;
10489;SDS011;35569;48.402;10.670;2023-09-18T03:12:35;5.13;;;4.93;;
10489;SDS011;35569;48.402;10.670;2023-09-18T03:13:14;7.23;;;5.90;;
10489;SDS011;35569;48.402;10.670;2023-09-18T03:13:50;6.07;;;5.53;;
10489;SDS011;35569;48.402;10.670;2023-09-18T03:14:23;5.43;;;4.90;;
10489;SDS011;35569;48.402;10.670;2023-09-18T03:14:56;5.77;;;5.37;;
10489;SDS011;35569;48.402;10.670;2023-09-18T03:15:40;5.40;;;5.00;;
10489;SDS011;35569;48.402;10.670;2023-09-18T03:16:19;5.93;;;5.43;;
10489;SDS011;35569;48.402;10.670;2023-09-18T03:16:54;6.60;;;6.03;;
10489;SDS011;35569;48.402;10.670;2023-09-18T03:17:29;5.63;;;5.27;;
10489;SDS011;35569;48.402;10.670;2023-09-18T03:18:02;7.00;;;4.90;;
10489;SDS011;35569;48.402;10.670;2023-09-18T03:18:37;4.60;;;4.40;;
10489;SDS011;35569;48.402;10.670;2023-09-18T03:19:10;4.73;;;4.33;;
10489;SDS011;35569;48.402;10.670;2023-09-18T03:19:47;4.13;;;3.83;;
10489;SDS011;35569;48.402;10.670;2023-09-18T03:20:22;4.40;;;4.20;;
10489;SDS011;35569;48.402;10.670;2023-09-18T03:20:59;3.70;;;3.50;;
10489;SDS011;35569;48.402;10.670;2023-09-18T03:21:32;8.47;;;4.90;;
10489;SDS011;35569;48.402;10.670;2023-09-18T03:22:09;6.40;;;4.50;;
10489;SDS011;35569;48.402;10.670;2023-09-18T03:22:41;4.80;;;4.47;;